Time;durP1;ratioP1;P1;durP2;ratioP2;P2;SDS_P1;SDS_P2;PMS_P1;PMS_P2;Temp;Humidity;BMP_temperature;BMP_pressure;BME280_temperature;BME280_humidity;BME280_pressure;Samples;Min_cycle;Max_cycle;Signal;HPM_P1;HPM_P2
2022/05/23 00:00:45;;;;;;;1.50;1.50;;;14.30;99.90;;;;;;497279;239;28234;-70
2022/05/23 00:02:46;;;;;;;2.00;1.90;;;14.30;99.90;;;;;;497206;239;28809;-70
2022/05/23 00:04:47;;;;;;;1.60;1.60;;;14.30;99.90;;;;;;497243;239;28348;-69
2022/05/23 00:06:51;;;;;;;1.80;1.70;;;14.30;99.90;;;;;;497230;239;28352;-70
2022/05/23 00:08:53;;;;;;;2.17;2.00;;;14.40;99.90;;;;;;497253;239;28450;-69
2022/05/23 00:10:54;;;;;;;1.90;1.80;;;14.30;99.90;;;;;;497210;239;28409;-72
2022/05/23 00:12:55;;;;;;;1.90;1.80;;;14.40;99.90;;;;;;497036;239;28154;-70
2022/05/23 00:14:56;;;;;;;2.00;1.90;;;14.40;99.90;;;;;;497260;239;28503;-71
2022/05/23 00:16:58;;;;;;;1.90;1.80;;;14.30;99.90;;;;;;497237;239;28476;-69
2022/05/23 00:18:59;;;;;;;1.90;1.80;;;14.30;99.90;;;;;;497280;239;28973;-70
2022/05/23 00:21:00;;;;;;;1.70;1.60;;;14.20;99.90;;;;;;497299;239;28853;-72
2022/05/23 00:23:01;;;;;;;1.93;1.77;;;14.20;99.90;;;;;;497261;239;29238;-69
2022/05/23 00:25:02;;;;;;;2.03;1.83;;;14.30;99.90;;;;;;497292;239;28408;-71
2022/05/23 00:27:04;;;;;;;1.70;1.60;;;14.30;99.90;;;;;;497256;239;28423;-70
2022/05/23 00:29:05;;;;;;;1.90;1.80;;;14.30;99.90;;;;;;497280;239;28239;-69
2022/05/23 00:31:06;;;;;;;1.90;1.80;;;14.30;99.90;;;;;;497296;239;28414;-71
2022/05/23 00:35:27;;;;;;;1.40;1.40;;;14.30;99.90;;;;;;497285;238;28266;-70
2022/05/23 00:37:28;;;;;;;1.90;1.80;;;14.30;99.90;;;;;;497272;239;28581;-74
2022/05/23 00:39:29;;;;;;;1.60;1.50;;;14.30;99.90;;;;;;497275;239;28403;-70
2022/05/23 00:43:52;;;;;;;2.03;1.93;;;14.10;99.90;;;;;;497278;238;28542;-71
2022/05/23 00:45:53;;;;;;;1.60;1.60;;;14.10;99.90;;;;;;497194;239;28630;-70
2022/05/23 00:47:55;;;;;;;2.00;1.90;;;13.90;99.90;;;;;;497235;239;28697;-72
2022/05/23 00:49:56;;;;;;;1.83;1.73;;;13.90;99.90;;;;;;497296;239;28816;-69
2022/05/23 00:51:57;;;;;;;2.03;1.77;;;13.90;99.90;;;;;;497269;239;28978;-71
2022/05/23 00:53:59;;;;;;;1.90;1.80;;;13.90;99.90;;;;;;497261;239;28705;-70
2022/05/23 00:56:00;;;;;;;1.80;1.70;;;13.80;99.90;;;;;;497255;239;28482;-70
2022/05/23 00:58:02;;;;;;;1.80;1.70;;;13.70;99.90;;;;;;497263;239;28298;-70
2022/05/23 01:00:03;;;;;;;2.23;2.13;;;13.70;99.90;;;;;;497289;239;28921;-72
2022/05/23 01:02:04;;;;;;;1.87;1.77;;;13.70;99.90;;;;;;497262;239;28889;-70
2022/05/23 01:04:05;;;;;;;2.30;2.20;;;13.70;99.90;;;;;;497275;239;29695;-70
2022/05/23 01:06:07;;;;;;;1.70;1.60;;;13.70;99.90;;;;;;497244;239;28376;-70
2022/05/23 01:08:08;;;;;;;1.90;1.70;;;13.80;99.90;;;;;;497243;239;28406;-70
2022/05/23 01:10:10;;;;;;;2.40;2.30;;;13.90;99.90;;;;;;497295;239;28209;-71
2022/05/23 01:12:10;;;;;;;2.10;2.00;;;13.80;99.90;;;;;;497126;239;28263;-69
2022/05/23 01:14:12;;;;;;;2.03;1.93;;;13.70;99.90;;;;;;497286;239;28288;-71
2022/05/23 01:16:13;;;;;;;2.10;2.00;;;13.50;99.90;;;;;;497145;239;28244;-70
2022/05/23 01:18:14;;;;;;;2.20;1.97;;;13.40;99.90;;;;;;497253;239;28309;-70
2022/05/23 01:20:15;;;;;;;2.10;1.93;;;13.40;99.90;;;;;;497302;239;28099;-72
2022/05/23 01:22:18;;;;;;;2.27;2.10;;;13.40;99.90;;;;;;497262;239;28179;-70
2022/05/23 01:24:18;;;;;;;2.10;2.00;;;13.60;99.90;;;;;;497236;239;28758;-71
2022/05/23 01:26:19;;;;;;;2.10;2.00;;;13.90;99.90;;;;;;497249;239;28698;-69
2022/05/23 01:28:21;;;;;;;2.10;1.90;;;14.40;99.90;;;;;;497265;239;28778;-70
2022/05/23 01:30:22;;;;;;;1.90;1.80;;;14.70;99.90;;;;;;497301;239;28725;-72
2022/05/23 01:32:23;;;;;;;2.17;2.07;;;14.90;99.90;;;;;;497271;239;28123;-70
2022/05/23 01:34:24;;;;;;;2.17;2.07;;;15.00;99.90;;;;;;497261;239;28391;-71
2022/05/23 01:36:26;;;;;;;1.80;1.70;;;15.10;99.90;;;;;;497264;239;28409;-70
2022/05/23 01:38:27;;;;;;;3.03;2.13;;;15.10;99.90;;;;;;497277;239;28394;-71
2022/05/23 01:40:28;;;;;;;1.90;1.80;;;15.20;99.90;;;;;;497304;239;28739;-71
2022/05/23 01:42:29;;;;;;;2.13;1.93;;;15.20;99.90;;;;;;497239;239;28365;-70
2022/05/23 01:44:32;;;;;;;1.70;1.60;;;15.30;99.90;;;;;;497266;239;28493;-71
2022/05/23 01:46:32;;;;;;;1.50;1.50;;;15.30;99.90;;;;;;497178;239;29297;-69
2022/05/23 01:48:33;;;;;;;1.73;1.63;;;15.30;99.90;;;;;;497288;239;28925;-70
2022/05/23 01:50:34;;;;;;;1.60;1.50;;;15.30;99.90;;;;;;497265;239;28944;-72
2022/05/23 01:52:36;;;;;;;1.60;1.50;;;15.30;99.90;;;;;;497298;239;29295;-70
2022/05/23 01:54:37;;;;;;;1.90;1.77;;;15.30;99.90;;;;;;497279;239;28894;-70
2022/05/23 01:56:38;;;;;;;1.70;1.70;;;15.30;99.90;;;;;;497271;239;28565;-70
2022/05/23 02:01:14;;;;;;;1.57;1.47;;;15.30;99.90;;;;;;497254;238;28798;-71
2022/05/23 02:03:15;;;;;;;2.30;1.50;;;15.30;99.90;;;;;;497250;239;29267;-70
2022/05/23 02:05:16;;;;;;;1.90;1.80;;;15.40;99.90;;;;;;497260;239;30016;-70
2022/05/23 02:07:18;;;;;;;1.70;1.60;;;15.40;99.90;;;;;;497284;239;28702;-70
2022/05/23 02:09:26;;;;;;;1.50;1.50;;;15.40;99.90;;;;;;497250;239;28809;-74
2022/05/23 02:11:20;;;;;;;1.60;1.50;;;15.40;99.90;;;;;;496827;239;28753;-70
2022/05/23 02:13:21;;;;;;;1.47;1.37;;;15.40;99.90;;;;;;497292;239;28575;-71
2022/05/23 02:15:23;;;;;;;1.63;1.53;;;15.40;99.90;;;;;;497293;239;28770;-70
2022/05/23 02:17:24;;;;;;;1.70;1.60;;;15.40;99.90;;;;;;497313;239;28540;-70
2022/05/23 02:19:25;;;;;;;1.70;1.60;;;15.50;99.90;;;;;;497328;239;28838;-71
2022/05/23 02:21:26;;;;;;;1.70;1.60;;;15.40;99.90;;;;;;497297;239;28759;-70
2022/05/23 02:23:28;;;;;;;1.47;1.37;;;15.50;99.90;;;;;;497262;239;28822;-70
2022/05/23 02:25:29;;;;;;;1.70;1.60;;;15.50;99.90;;;;;;497301;239;29847;-70
2022/05/23 02:27:30;;;;;;;2.00;1.47;;;15.50;99.90;;;;;;497310;239;29200;-69
2022/05/23 02:29:32;;;;;;;2.07;1.97;;;15.50;99.90;;;;;;497304;239;29370;-70
2022/05/23 02:31:33;;;;;;;2.00;1.90;;;15.50;99.90;;;;;;497274;239;28841;-70
2022/05/23 02:33:35;;;;;;;1.90;1.80;;;15.50;99.90;;;;;;497271;238;28914;-70
2022/05/23 02:35:35;;;;;;;1.73;1.63;;;15.50;99.90;;;;;;497259;239;28830;-70
2022/05/23 02:37:37;;;;;;;2.10;2.00;;;15.60;99.90;;;;;;497291;239;28474;-70
2022/05/23 02:39:38;;;;;;;1.80;1.70;;;15.60;99.90;;;;;;497273;239;28848;-70
2022/05/23 02:41:39;;;;;;;1.90;1.80;;;15.60;99.90;;;;;;497270;239;28751;-70
2022/05/23 02:43:40;;;;;;;1.87;1.70;;;15.60;99.90;;;;;;497248;239;28817;-70
2022/05/23 02:45:42;;;;;;;1.43;1.40;;;15.60;99.90;;;;;;497300;239;29132;-72
2022/05/23 02:47:46;;;;;;;1.80;1.70;;;15.60;99.90;;;;;;497315;239;28847;-70
2022/05/23 02:49:47;;;;;;;1.77;1.67;;;15.60;99.90;;;;;;497262;239;28797;-70
2022/05/23 02:51:48;;;;;;;1.53;1.43;;;15.50;99.90;;;;;;497255;239;28916;-70
2022/05/23 02:53:50;;;;;;;1.60;1.50;;;15.50;99.90;;;;;;497255;239;28761;-70
2022/05/23 02:55:51;;;;;;;1.67;1.60;;;15.50;99.90;;;;;;497273;238;29289;-70
2022/05/23 02:57:52;;;;;;;1.50;1.40;;;15.40;99.90;;;;;;497285;239;29340;-74
2022/05/23 02:59:54;;;;;;;1.67;1.60;;;15.40;99.90;;;;;;497271;239;28769;-70
2022/05/23 03:04:15;;;;;;;1.50;1.50;;;15.10;99.90;;;;;;497255;238;28827;-70
2022/05/23 03:06:16;;;;;;;1.70;1.60;;;15.00;99.90;;;;;;497264;239;28852;-70
2022/05/23 03:08:17;;;;;;;1.80;1.70;;;14.80;99.90;;;;;;497255;239;29312;-70
2022/05/23 03:10:18;;;;;;;1.90;1.80;;;14.70;99.90;;;;;;497280;239;28925;-71
2022/05/23 03:12:20;;;;;;;2.73;2.10;;;14.40;99.90;;;;;;497280;239;28462;-70
2022/05/23 03:14:21;;;;;;;2.10;1.90;;;14.20;99.90;;;;;;497262;239;28583;-70
2022/05/23 03:16:22;;;;;;;1.93;1.80;;;14.20;99.90;;;;;;497223;238;28559;-70
2022/05/23 03:18:24;;;;;;;2.60;1.90;;;14.20;99.90;;;;;;497206;239;28883;-71
2022/05/23 03:20:25;;;;;;;2.17;2.03;;;14.20;99.90;;;;;;497251;239;29048;-70
2022/05/23 03:27:05;;;;;;;2.20;2.10;;;14.20;99.90;;;;;;497163;238;28368;-71
2022/05/23 03:29:06;;;;;;;2.17;2.07;;;14.10;99.90;;;;;;497164;239;28243;-70
2022/05/23 03:31:08;;;;;;;2.30;2.20;;;14.10;99.90;;;;;;497128;239;28492;-70
2022/05/23 03:33:11;;;;;;;2.53;2.33;;;14.20;99.90;;;;;;497235;239;28572;-73
2022/05/23 03:35:11;;;;;;;2.30;2.10;;;14.10;99.90;;;;;;497173;239;28429;-70
2022/05/23 03:37:13;;;;;;;2.30;2.17;;;14.10;99.90;;;;;;497181;239;28392;-70
2022/05/23 03:39:14;;;;;;;2.23;2.13;;;14.20;99.90;;;;;;497206;239;28864;-70
2022/05/23 03:41:15;;;;;;;2.40;2.20;;;14.20;99.90;;;;;;497218;239;29014;-72
2022/05/23 03:43:16;;;;;;;2.10;2.00;;;14.20;99.90;;;;;;497250;239;29255;-70
2022/05/23 03:45:18;;;;;;;3.10;2.80;;;14.20;99.90;;;;;;497292;239;28889;-72
2022/05/23 03:47:19;;;;;;;2.50;2.27;;;14.00;99.90;;;;;;497276;239;28315;-70
2022/05/23 03:49:20;;;;;;;2.63;2.23;;;14.00;99.90;;;;;;497237;239;28493;-71
2022/05/23 03:51:21;;;;;;;2.50;2.30;;;14.10;99.90;;;;;;497311;239;28337;-71
2022/05/23 03:53:23;;;;;;;2.70;2.50;;;14.20;99.90;;;;;;497281;239;28518;-70
2022/05/23 03:55:24;;;;;;;2.33;2.13;;;14.10;99.90;;;;;;497278;239;28185;-71
2022/05/23 03:57:25;;;;;;;2.73;2.30;;;14.10;99.90;;;;;;497272;239;28441;-70
2022/05/23 03:59:26;;;;;;;2.57;2.20;;;14.10;99.90;;;;;;497286;239;28278;-70
2022/05/23 04:01:28;;;;;;;2.50;2.30;;;14.10;99.90;;;;;;497330;239;28309;-70
2022/05/23 04:03:29;;;;;;;3.13;2.30;;;14.10;99.90;;;;;;497281;239;28147;-70
2022/05/23 04:05:30;;;;;;;1.90;1.80;;;14.10;99.90;;;;;;497267;239;28866;-70
2022/05/23 04:07:31;;;;;;;2.10;2.00;;;14.10;99.90;;;;;;497250;239;28907;-70
2022/05/23 04:09:33;;;;;;;2.50;2.23;;;14.10;99.90;;;;;;497247;239;28949;-70
2022/05/23 04:11:34;;;;;;;2.20;2.10;;;14.10;99.90;;;;;;497280;239;28479;-72
2022/05/23 04:13:36;;;;;;;2.00;1.90;;;14.10;99.90;;;;;;497285;239;28351;-70
2022/05/23 04:15:36;;;;;;;3.00;2.60;;;14.00;99.90;;;;;;497266;239;28432;-71
2022/05/23 04:17:38;;;;;;;2.77;2.57;;;13.80;99.90;;;;;;497221;239;28283;-70
2022/05/23 04:19:39;;;;;;;2.77;2.57;;;13.80;99.90;;;;;;497251;239;28277;-71
2022/05/23 04:21:41;;;;;;;2.83;2.63;;;13.90;99.90;;;;;;497291;239;28181;-70
2022/05/23 04:23:41;;;;;;;2.83;2.63;;;13.90;99.90;;;;;;497263;239;28056;-70
2022/05/23 04:25:43;;;;;;;3.07;2.77;;;13.80;99.90;;;;;;497239;239;28503;-71
2022/05/23 04:27:45;;;;;;;3.10;2.90;;;;;;;;;;497246;239;28439;-70
2022/05/23 04:29:46;;;;;;;3.17;2.87;;;13.70;99.90;;;;;;497292;239;26746;-73
2022/05/23 04:31:48;;;;;;;3.37;3.10;;;13.80;99.90;;;;;;497259;239;28298;-70
2022/05/23 04:36:08;;;;;;;5.37;3.37;;;13.80;99.90;;;;;;497197;238;28289;-70
2022/05/23 04:38:11;;;;;;;3.03;2.83;;;13.80;99.90;;;;;;497281;239;28258;-70
2022/05/23 04:40:11;;;;;;;2.57;2.37;;;14.00;99.90;;;;;;497155;239;28296;-72
2022/05/23 04:42:12;;;;;;;3.13;2.83;;;14.10;99.90;;;;;;497258;239;28194;-71
2022/05/23 04:44:13;;;;;;;2.70;2.50;;;14.20;99.90;;;;;;497240;239;28271;-70
2022/05/23 04:46:15;;;;;;;2.67;2.50;;;14.30;99.90;;;;;;497224;239;28457;-70
2022/05/23 04:50:35;;;;;;;3.00;2.13;;;14.40;99.90;;;;;;497255;238;28909;-70
2022/05/23 04:52:37;;;;;;;2.83;2.63;;;14.40;99.90;;;;;;497222;239;28793;-70
2022/05/23 04:54:38;;;;;;;2.33;2.23;;;14.40;99.90;;;;;;495909;239;29081;-70
2022/05/23 04:56:39;;;;;;;2.60;2.40;;;14.40;99.90;;;;;;496233;239;28439;-72
2022/05/23 04:58:40;;;;;;;2.80;2.60;;;14.50;99.90;;;;;;496882;239;28872;-70
2022/05/23 05:00:42;;;;;;;2.30;2.20;;;14.50;99.90;;;;;;497176;239;28622;-70
2022/05/23 05:02:43;;;;;;;2.10;2.00;;;14.50;99.90;;;;;;497236;239;28755;-70
2022/05/23 05:04:44;;;;;;;3.47;2.50;;;14.50;99.90;;;;;;497256;239;29326;-70
2022/05/23 05:06:46;;;;;;;2.50;2.27;;;14.40;99.90;;;;;;497260;239;29045;-72
2022/05/23 05:08:47;;;;;;;2.67;2.47;;;14.40;99.90;;;;;;497262;239;29039;-70
2022/05/23 05:10:48;;;;;;;3.53;2.50;;;14.40;99.90;;;;;;497258;239;28509;-70
2022/05/23 05:12:49;;;;;;;2.80;2.60;;;14.40;99.90;;;;;;497301;239;28504;-74
2022/05/23 05:14:51;;;;;;;2.60;2.40;;;14.50;99.90;;;;;;497263;239;28847;-70
2022/05/23 05:16:52;;;;;;;2.30;2.20;;;14.70;99.90;;;;;;497248;239;28785;-70
2022/05/23 05:18:53;;;;;;;1.93;1.83;;;14.80;99.90;;;;;;497235;239;28780;-70
2022/05/23 05:20:54;;;;;;;2.20;2.10;;;14.80;99.90;;;;;;497259;239;28481;-70
2022/05/23 05:22:57;;;;;;;2.33;2.13;;;14.90;99.90;;;;;;497279;239;28524;-73
2022/05/23 05:24:59;;;;;;;2.37;2.23;;;14.90;99.90;;;;;;497262;239;28537;-70
2022/05/23 05:27:00;;;;;;;2.30;2.17;;;14.80;99.90;;;;;;497238;239;28879;-71
2022/05/23 05:29:02;;;;;;;2.60;2.40;;;14.90;99.90;;;;;;497283;239;28880;-72
2022/05/23 05:31:03;;;;;;;2.63;2.20;;;14.90;99.90;;;;;;497247;239;29201;-71
2022/05/23 05:33:04;;;;;;;2.50;2.30;;;15.00;99.90;;;;;;497273;239;29303;-70
2022/05/23 05:35:05;;;;;;;1.90;1.80;;;15.00;99.90;;;;;;497277;239;29235;-70
2022/05/23 05:37:07;;;;;;;2.40;2.30;;;15.20;99.90;;;;;;497224;239;28870;-70
2022/05/23 05:39:08;;;;;;;2.40;2.10;;;15.30;99.90;;;;;;497293;239;29173;-74
2022/05/23 05:41:09;;;;;;;2.40;2.23;;;15.40;99.90;;;;;;497278;239;28759;-70
2022/05/23 05:43:11;;;;;;;1.90;1.80;;;15.50;99.90;;;;;;497289;239;28788;-72
2022/05/23 05:45:12;;;;;;;2.07;1.97;;;15.60;99.90;;;;;;497251;239;28804;-70
2022/05/23 05:47:13;;;;;;;2.03;1.90;;;15.70;99.90;;;;;;497327;239;28788;-71
2022/05/23 05:49:14;;;;;;;1.97;1.87;;;15.80;99.90;;;;;;497335;239;28791;-72
2022/05/23 05:51:15;;;;;;;2.00;1.90;;;15.90;99.90;;;;;;497299;239;28771;-70
2022/05/23 05:53:17;;;;;;;1.90;1.80;;;16.00;99.90;;;;;;497299;239;28860;-70
2022/05/23 05:55:18;;;;;;;2.37;2.20;;;16.00;99.90;;;;;;497301;239;29672;-70
2022/05/23 05:57:19;;;;;;;2.10;2.00;;;16.00;99.90;;;;;;497283;239;29203;-70
2022/05/23 05:59:20;;;;;;;2.03;1.93;;;16.10;99.90;;;;;;497279;239;29333;-71
2022/05/23 06:01:22;;;;;;;2.07;1.97;;;16.10;99.90;;;;;;497279;239;28751;-70
2022/05/23 06:03:23;;;;;;;2.23;2.10;;;16.10;99.90;;;;;;497270;239;28835;-71
2022/05/23 06:05:24;;;;;;;2.03;1.93;;;16.10;99.90;;;;;;497249;238;28770;-70
2022/05/23 06:12:04;;;;;;;2.43;2.30;;;16.10;99.90;;;;;;497268;239;28849;-70
2022/05/23 06:14:06;;;;;;;2.30;2.10;;;16.20;99.90;;;;;;497226;239;28795;-70
2022/05/23 06:16:07;;;;;;;2.67;2.47;;;16.30;99.90;;;;;;497292;239;28817;-73
2022/05/23 06:18:08;;;;;;;2.30;2.20;;;16.30;99.90;;;;;;497296;239;29361;-71
2022/05/23 06:20:09;;;;;;;2.27;1.90;;;16.30;99.90;;;;;;497287;239;29264;-72
2022/05/23 06:22:11;;;;;;;2.20;2.10;;;16.40;99.90;;;;;;497269;239;28851;-71
2022/05/23 06:24:12;;;;;;;2.27;2.00;;;16.40;99.90;;;;;;497264;239;28862;-70
2022/05/23 06:26:14;;;;;;;2.23;2.13;;;16.40;99.90;;;;;;497214;239;28891;-72
2022/05/23 06:28:14;;;;;;;2.20;2.10;;;16.50;99.90;;;;;;497266;239;28768;-70
2022/05/23 06:30:16;;;;;;;6.10;2.00;;;16.50;99.90;;;;;;497208;239;28881;-71
2022/05/23 06:32:17;;;;;;;1.90;1.80;;;16.60;99.90;;;;;;497010;239;28792;-70
2022/05/23 06:34:18;;;;;;;2.07;1.97;;;16.60;99.90;;;;;;497261;239;28830;-71
2022/05/23 06:36:19;;;;;;;2.10;2.00;;;16.70;99.90;;;;;;497285;238;28833;-72
2022/05/23 06:38:21;;;;;;;2.27;2.10;;;16.90;99.90;;;;;;497297;238;28771;-71
2022/05/23 06:40:22;;;;;;;2.30;2.10;;;16.90;99.90;;;;;;497271;239;29333;-70
2022/05/23 06:42:23;;;;;;;2.10;2.00;;;16.90;99.90;;;;;;497275;239;29187;-70
2022/05/23 06:44:24;;;;;;;2.80;2.13;;;16.90;99.90;;;;;;497265;239;29215;-71
2022/05/23 06:46:26;;;;;;;2.60;2.40;;;17.00;99.90;;;;;;497278;239;28827;-71
2022/05/23 06:48:27;;;;;;;2.30;2.10;;;17.00;99.90;;;;;;497278;239;28751;-71
2022/05/23 06:50:28;;;;;;;2.60;2.40;;;17.00;99.90;;;;;;497293;239;28801;-71
2022/05/23 06:52:29;;;;;;;2.47;2.27;;;17.00;99.90;;;;;;497267;239;28777;-70
2022/05/23 06:54:31;;;;;;;2.30;2.10;;;17.00;99.90;;;;;;497289;239;28779;-70
2022/05/23 06:56:32;;;;;;;2.57;2.23;;;16.90;99.90;;;;;;497278;239;28807;-74
2022/05/23 06:58:33;;;;;;;2.23;2.13;;;17.00;99.90;;;;;;497270;239;28798;-70
2022/05/23 07:00:36;;;;;;;2.10;2.00;;;16.90;99.90;;;;;;497272;239;28789;-70
2022/05/23 07:02:36;;;;;;;2.07;1.97;;;17.00;99.90;;;;;;497210;239;28842;-70
2022/05/23 07:14:00;;;;;;;2.33;2.23;;;17.20;99.90;;;;;;497269;238;29243;-71
2022/05/23 07:15:57;;;;;;;2.57;2.37;;;17.30;99.90;;;;;;496982;239;29251;-74
2022/05/23 07:17:58;;;;;;;3.17;2.40;;;17.30;99.90;;;;;;497337;239;29239;-70
2022/05/23 07:19:59;;;;;;;2.70;2.60;;;17.30;99.90;;;;;;497350;239;28735;-70
2022/05/23 07:22:02;;;;;;;2.57;2.40;;;17.30;99.90;;;;;;497291;239;28831;-70
2022/05/23 07:24:01;;;;;;;2.67;2.47;;;17.40;99.90;;;;;;497220;239;28866;-71
2022/05/23 07:26:03;;;;;;;2.33;2.13;;;17.60;99.90;;;;;;497322;239;28724;-72
2022/05/23 07:28:04;;;;;;;2.33;2.10;;;17.70;99.90;;;;;;497307;239;28766;-71
2022/05/23 07:30:05;;;;;;;2.17;2.07;;;17.80;99.90;;;;;;497306;238;28791;-72
2022/05/23 07:32:06;;;;;;;2.50;2.30;;;17.90;99.90;;;;;;497290;239;28750;-71
2022/05/23 07:34:08;;;;;;;2.50;2.20;;;17.90;99.90;;;;;;497275;239;28867;-71
2022/05/23 07:36:09;;;;;;;2.33;2.23;;;17.80;99.90;;;;;;497325;239;28921;-75
2022/05/23 07:38:10;;;;;;;2.33;2.17;;;17.90;99.90;;;;;;497320;239;29223;-71
2022/05/23 07:40:13;;;;;;;2.80;2.50;;;18.00;99.90;;;;;;497289;239;29286;-72
2022/05/23 07:42:15;;;;;;;2.67;2.47;;;18.10;99.90;;;;;;497306;239;28755;-70
2022/05/23 07:44:16;;;;;;;2.33;2.13;;;18.10;99.90;;;;;;497268;239;28874;-71
2022/05/23 07:46:17;;;;;;;2.43;2.33;;;18.20;99.90;;;;;;497317;239;29650;-72
2022/05/23 07:48:18;;;;;;;3.47;2.57;;;18.20;99.90;;;;;;497287;239;29272;-71
2022/05/23 07:50:21;;;;;;;2.10;2.00;;;18.30;99.90;;;;;;497303;239;29263;-72
2022/05/23 07:52:21;;;;;;;2.90;2.53;;;18.40;99.90;;;;;;497094;239;28767;-71
2022/05/23 08:01:21;;;;;;;2.63;2.43;;;18.20;99.90;;;;;;497353;238;29981;-71
2022/05/23 08:03:23;;;;;;;2.40;2.20;;;18.10;99.90;;;;;;497334;239;29272;-70
2022/05/23 08:05:24;;;;;;;2.20;2.10;;;18.00;99.90;;;;;;497334;239;28790;-70
2022/05/23 08:07:28;;;;;;;2.53;2.30;;;18.00;99.90;;;;;;497309;239;28760;-71
2022/05/23 08:09:26;;;;;;;2.23;2.13;;;18.00;99.90;;;;;;497135;239;28832;-71
2022/05/23 08:11:28;;;;;;;2.77;2.30;;;17.90;99.90;;;;;;497321;239;28768;-70
2022/05/23 08:13:29;;;;;;;2.53;2.30;;;17.90;99.90;;;;;;497328;239;28800;-70
2022/05/23 08:15:31;;;;;;;2.30;2.20;;;17.90;99.90;;;;;;497337;239;29230;-71
2022/05/23 08:17:31;;;;;;;2.77;2.57;;;17.90;99.90;;;;;;497272;239;29200;-70
2022/05/23 08:19:33;;;;;;;2.37;2.17;;;17.90;99.90;;;;;;497308;239;29259;-71
2022/05/23 08:21:34;;;;;;;2.27;2.17;;;17.90;99.90;;;;;;497351;239;28858;-71
2022/05/23 08:23:36;;;;;;;2.60;2.40;;;17.90;99.90;;;;;;497327;239;28771;-71
2022/05/23 08:25:36;;;;;;;2.20;2.10;;;18.00;99.90;;;;;;497312;239;28887;-70
2022/05/23 08:27:38;;;;;;;2.67;2.47;;;18.10;99.90;;;;;;497297;239;28847;-70
2022/05/23 08:29:39;;;;;;;2.20;1.93;;;18.20;99.90;;;;;;497315;239;29358;-72
2022/05/23 08:31:40;;;;;;;2.57;2.47;;;18.20;99.90;;;;;;497312;239;29264;-73
2022/05/23 08:33:43;;;;;;;2.50;2.30;;;18.30;99.90;;;;;;497325;239;29295;-71
2022/05/23 08:35:45;;;;;;;3.00;2.80;;;18.40;99.90;;;;;;497339;239;28799;-72
2022/05/23 08:37:46;;;;;;;2.67;2.50;;;18.50;99.90;;;;;;497297;239;28759;-71
2022/05/23 08:39:47;;;;;;;2.63;2.50;;;18.70;99.90;;;;;;497305;239;29221;-71
2022/05/23 08:41:48;;;;;;;2.30;2.20;;;18.90;99.90;;;;;;497335;239;29352;-74
2022/05/23 08:43:50;;;;;;;4.30;3.30;;;19.00;99.90;;;;;;497329;239;29350;-70
2022/05/23 08:45:52;;;;;;;2.70;2.50;;;19.00;99.90;;;;;;497293;239;28820;-71
2022/05/23 08:47:52;;;;;;;3.17;2.57;;;19.20;99.90;;;;;;497230;239;28895;-71
2022/05/23 08:49:53;;;;;;;3.00;2.53;;;19.20;99.90;;;;;;497312;239;28689;-71
2022/05/23 08:51:55;;;;;;;4.27;2.73;;;19.20;99.90;;;;;;497291;239;28789;-72
2022/05/23 08:53:56;;;;;;;2.37;2.27;;;19.20;99.90;;;;;;497287;239;28776;-70
2022/05/23 08:55:57;;;;;;;2.60;2.50;;;19.20;99.90;;;;;;497289;239;28732;-71
2022/05/23 08:58:00;;;;;;;2.60;2.40;;;19.30;99.90;;;;;;497290;239;29144;-76
2022/05/23 09:00:00;;;;;;;2.97;2.70;;;19.50;99.90;;;;;;497204;239;28802;-72
2022/05/23 09:02:01;;;;;;;2.40;2.30;;;19.70;99.90;;;;;;497295;239;29362;-73
2022/05/23 09:04:02;;;;;;;3.57;2.53;;;19.90;99.90;;;;;;497280;239;29200;-70
2022/05/23 09:06:05;;;;;;;2.80;2.60;;;20.10;99.90;;;;;;497249;239;29385;-72
2022/05/23 09:08:05;;;;;;;2.70;2.50;;;20.30;99.90;;;;;;497114;239;29171;-71
2022/05/23 09:10:06;;;;;;;2.87;2.67;;;20.50;99.90;;;;;;497254;239;28743;-71
2022/05/23 09:12:07;;;;;;;2.70;2.50;;;20.50;99.90;;;;;;497260;239;28724;-75
2022/05/23 09:14:08;;;;;;;6.73;2.90;;;20.50;99.90;;;;;;497258;239;28765;-71
2022/05/23 09:16:10;;;;;;;3.13;2.90;;;20.50;99.90;;;;;;497245;239;28811;-71
2022/05/23 09:18:11;;;;;;;2.80;2.60;;;20.60;99.90;;;;;;497209;239;28867;-71
2022/05/23 09:20:12;;;;;;;3.03;2.70;;;20.60;99.90;;;;;;497273;239;28778;-71
2022/05/23 09:22:13;;;;;;;3.57;2.90;;;20.60;99.90;;;;;;497267;239;28789;-73
2022/05/23 09:24:15;;;;;;;2.93;2.73;;;20.50;99.90;;;;;;497259;239;28844;-71
2022/05/23 09:26:16;;;;;;;2.90;2.70;;;20.50;99.90;;;;;;497224;239;29254;-72
2022/05/23 09:28:18;;;;;;;2.93;2.73;;;20.50;99.90;;;;;;497248;239;29976;-71
2022/05/23 09:30:21;;;;;;;2.80;2.60;;;20.60;99.90;;;;;;497196;239;29195;-72
2022/05/23 09:32:20;;;;;;;3.00;2.43;;;20.70;99.90;;;;;;497061;239;29266;-72
2022/05/23 09:34:21;;;;;;;2.70;2.47;;;20.80;99.90;;;;;;497266;239;28796;-71
2022/05/23 09:36:22;;;;;;;3.10;2.77;;;21.10;99.90;;;;;;497243;239;28802;-72
2022/05/23 09:38:25;;;;;;;2.80;2.60;;;21.30;99.90;;;;;;497214;239;28847;-71
2022/05/23 09:40:25;;;;;;;3.90;2.47;;;21.30;99.90;;;;;;497129;239;28838;-72
2022/05/23 09:49:26;;;;;;;5.13;2.93;;;21.20;99.90;;;;;;497212;239;28796;-71
2022/05/23 09:51:26;;;;;;;3.50;3.20;;;21.20;99.90;;;;;;497163;239;28819;-71
2022/05/23 09:53:27;;;;;;;4.10;2.97;;;21.40;99.90;;;;;;497253;239;28790;-71
2022/05/23 09:55:31;;;;;;;7.57;3.37;;;21.50;99.90;;;;;;497221;239;28731;-73
2022/05/23 09:57:32;;;;;;;4.43;3.07;;;21.50;99.90;;;;;;497083;239;28813;-72
2022/05/23 09:59:31;;;;;;;3.97;2.77;;;21.40;99.90;;;;;;497083;239;28832;-73
2022/05/23 10:01:32;;;;;;;4.27;2.90;;;21.40;99.90;;;;;;497235;238;29288;-71
2022/05/23 10:03:33;;;;;;;3.87;2.80;;;21.40;99.90;;;;;;497264;239;29237;-71
2022/05/23 10:05:35;;;;;;;3.00;2.70;;;21.40;99.90;;;;;;497246;239;29261;-73
2022/05/23 10:07:36;;;;;;;2.90;2.70;;;21.20;99.90;;;;;;497224;239;29216;-71
2022/05/23 10:09:37;;;;;;;3.90;2.63;;;21.00;99.90;;;;;;497242;239;29279;-72
2022/05/23 10:11:39;;;;;;;3.40;3.10;;;20.90;99.90;;;;;;497232;239;28815;-71
2022/05/23 10:13:40;;;;;;;3.10;2.60;;;20.90;99.90;;;;;;497203;239;28900;-72
2022/05/23 10:15:41;;;;;;;4.03;2.97;;;21.00;99.90;;;;;;497261;239;28720;-75
2022/05/23 10:17:43;;;;;;;4.30;2.97;;;21.10;99.90;;;;;;497219;239;28749;-72
2022/05/23 10:19:44;;;;;;;3.47;2.90;;;21.20;99.90;;;;;;497242;239;28804;-72
2022/05/23 10:21:45;;;;;;;3.13;2.83;;;21.10;99.90;;;;;;497234;239;28790;-71
2022/05/23 10:23:46;;;;;;;4.43;2.83;;;21.10;99.90;;;;;;497259;239;28787;-71
2022/05/23 10:25:47;;;;;;;2.60;2.40;;;21.10;99.90;;;;;;497270;239;28797;-74
2022/05/23 10:27:49;;;;;;;3.60;2.60;;;21.20;99.90;;;;;;497251;239;29335;-71
2022/05/23 10:29:51;;;;;;;3.70;2.93;;;21.30;99.90;;;;;;497226;239;29354;-71
2022/05/23 10:31:52;;;;;;;4.90;3.10;;;21.40;99.90;;;;;;497119;239;29209;-71
2022/05/23 10:33:52;;;;;;;3.87;3.30;;;21.50;99.90;;;;;;497162;239;29421;-71
2022/05/23 10:35:54;;;;;;;2.93;2.73;;;21.60;99.90;;;;;;497222;239;28804;-74
2022/05/23 10:42:07;;;;;;;3.93;3.53;;;21.70;99.90;;;;;;497201;239;28851;-72
2022/05/23 10:42:16;;;;;;;3.57;2.87;;;21.50;99.90;;;;;;497244;238;29366;-75
2022/05/23 10:44:17;;;;;;;3.77;3.03;;;21.60;99.90;;;;;;497200;239;28750;-71
2022/05/23 10:46:18;;;;;;;4.13;2.60;;;21.60;99.90;;;;;;497181;239;28793;-73
2022/05/23 10:48:23;;;;;;;4.97;2.80;;;21.60;99.90;;;;;;497231;239;28801;-71
2022/05/23 10:50:24;;;;;;;6.23;2.60;;;21.60;99.90;;;;;;497090;239;29140;-74
2022/05/23 10:52:25;;;;;;;3.33;3.03;;;21.70;99.90;;;;;;497240;239;29319;-71
2022/05/23 10:54:30;;;;;;;3.20;2.90;;;21.70;99.90;;;;;;497212;239;29338;-74
2022/05/23 10:56:28;;;;;;;5.80;2.67;;;21.70;99.90;;;;;;496965;239;29262;-72
2022/05/23 10:58:30;;;;;;;3.60;3.10;;;21.70;99.90;;;;;;497217;239;29335;-72
2022/05/23 11:00:30;;;;;;;2.63;2.43;;;21.60;99.90;;;;;;497185;239;28880;-71
2022/05/23 11:02:31;;;;;;;3.27;3.07;;;21.60;99.90;;;;;;497224;239;28845;-72
2022/05/23 11:04:33;;;;;;;2.77;2.57;;;21.60;99.90;;;;;;497248;239;28835;-72
2022/05/23 11:06:34;;;;;;;2.87;2.50;;;21.60;99.90;;;;;;497196;239;28749;-71
2022/05/23 11:08:35;;;;;;;2.90;2.70;;;21.50;99.90;;;;;;497198;239;28894;-72
2022/05/23 11:10:36;;;;;;;2.67;2.43;;;21.50;99.90;;;;;;497232;239;28787;-75
2022/05/23 11:12:38;;;;;;;3.30;2.50;;;21.40;99.90;;;;;;497255;239;28873;-71
2022/05/23 11:14:39;;;;;;;3.27;2.97;;;21.30;99.90;;;;;;497237;239;28774;-73
2022/05/23 11:16:40;;;;;;;2.50;2.30;;;21.30;99.90;;;;;;497213;239;29291;-71
2022/05/23 11:18:42;;;;;;;3.90;2.97;;;21.40;99.90;;;;;;497218;239;29333;-72
2022/05/23 11:20:43;;;;;;;2.80;2.60;;;21.40;99.90;;;;;;497236;239;29357;-71